Erie (ERI/KERI)

Map

Information

Location
Erie, PA
Local Time
18:40 / 6:40 pm
GMT Time
22:40 / 10:40 pm
Gates
4
No FAA reported delays
METAR KERI 242235Z 29011G19KT 10SM SCT022 OVC041 20/14 A2993 RMK AO2 T02000144
TAF KERI 242128Z 2421/2518 29012G20KT P6SM VCSH BKN025 BKN045 TEMPO 2423/2501 -SHRA OVC015 FM250100 32012G20KT P6SM BKN030 FM250400 36008KT P6SM BKN025